Terminal Aerodrome Forecast
Issued by NWS

Home | Current Version | Previous Version | Text Only | Print | Product List | Glossary On
Versions: 1 2 3 4 5 6 7 8 9 10 11 12 13 14 15 16 17 18 19
000
FTUS43 KSGF 190525
TAFJLN
TAF
KJLN 190525Z 1906/2006 19023G32KT P6SM VCSH OVC008 WS020/21055KT
     FM190900 19023G32KT P6SM -SHRA OVC008 WS020/21055KT
     FM191200 19024G33KT P6SM SHRA OVC010 WS020/21055KT
     FM191800 19023G32KT P6SM -SHRA OVC015
     FM200100 19017G26KT P6SM -SHRA OVC015 WS020/20050KT=

USA.gov is the U.S. government's official web portal to all federal, state and local government web resources and services.